Time;durP1;ratioP1;P1;durP2;ratioP2;P2;SDS_P1;SDS_P2;PMS_P1;PMS_P2;Temp;Humidity;BMP_temperature;BMP_pressure;BME280_temperature;BME280_humidity;BME280_pressure;Samples;Min_cycle;Max_cycle;Signal;HPM_P1;HPM_P2
2022/04/04 00:00:03;;;;;;;6.65;4.15;;;;;;;;;;5071630;28;20108;-77
2022/04/04 00:02:29;;;;;;;7.45;3.78;;;;;;;;;;5071730;28;20035;-77
2022/04/04 00:04:56;;;;;;;9.05;3.65;;;;;;;;;;5071549;28;20025;-77
2022/04/04 00:07:22;;;;;;;6.32;3.60;;;;;;;;;;5071527;28;20074;-77
2022/04/04 00:09:48;;;;;;;6.72;3.92;;;;;;;;;;5071508;28;20488;-77
2022/04/04 00:12:14;;;;;;;8.77;3.75;;;;;;;;;;5071542;28;20029;-77
2022/04/04 00:14:40;;;;;;;6.03;3.45;;;;;;;;;;5073067;28;20017;-77
2022/04/04 00:17:06;;;;;;;9.70;4.30;;;;;;;;;;5075610;28;20036;-77
2022/04/04 00:19:32;;;;;;;10.95;4.07;;;;;;;;;;5075378;28;20048;-77
2022/04/04 00:21:58;;;;;;;9.85;4.43;;;;;;;;;;5075216;28;20542;-77
2022/04/04 00:24:24;;;;;;;9.02;4.35;;;;;;;;;;5075558;28;20417;-77
2022/04/04 00:26:51;;;;;;;6.60;4.45;;;;;;;;;;5075169;28;20079;-77
2022/04/04 00:29:18;;;;;;;8.73;4.90;;;;;;;;;;5075267;28;20112;-77
2022/04/04 00:31:44;;;;;;;10.60;5.15;;;;;;;;;;5075240;28;20020;-77
2022/04/04 00:34:10;;;;;;;18.30;5.75;;;;;;;;;;5075084;28;20492;-77
2022/04/04 00:36:38;;;;;;;8.82;5.70;;;;;;;;;;5075037;28;20025;-77
2022/04/04 00:39:04;;;;;;;12.00;6.28;;;;;;;;;;5075134;28;20045;-77
2022/04/04 00:41:30;;;;;;;9.15;5.53;;;;;;;;;;5074713;28;20086;-77
2022/04/04 00:43:56;;;;;;;13.50;6.30;;;;;;;;;;5074881;28;20505;-77
2022/04/04 00:46:22;;;;;;;11.63;6.63;;;;;;;;;;5075073;28;20340;-77
2022/04/04 00:48:48;;;;;;;11.43;6.57;;;;;;;;;;5074802;28;20013;-77
2022/04/04 00:51:15;;;;;;;14.43;5.97;;;;;;;;;;5074640;28;20027;-77
2022/04/04 00:53:41;;;;;;;10.73;5.97;;;;;;;;;;5074771;28;20024;-77
2022/04/04 00:56:08;;;;;;;8.95;5.70;;;;;;;;;;5056272;28;20033;-77
2022/04/04 00:58:36;;;;;;;11.50;5.32;;;;;;;;;;5074778;28;20066;-77
2022/04/04 01:01:02;;;;;;;17.88;6.20;;;;;;;;;;5056697;28;20085;-77
2022/04/04 01:03:28;;;;;;;11.48;6.25;;;;;;;;;;5074504;28;20032;-77
2022/04/04 01:05:58;;;;;;;9.18;5.07;;;;;;;;;;5074403;28;20032;-77
2022/04/04 01:08:24;;;;;;;8.68;5.25;;;;;;;;;;5074573;28;20051;-77
2022/04/04 01:10:50;;;;;;;9.40;4.75;;;;;;;;;;5074269;28;20020;-77
2022/04/04 01:13:16;;;;;;;8.73;5.05;;;;;;;;;;5074323;28;20033;-77
2022/04/04 01:15:42;;;;;;;7.55;4.75;;;;;;;;;;5074374;28;20036;-77
2022/04/04 01:18:09;;;;;;;7.70;4.57;;;;;;;;;;5074460;28;20023;-76
2022/04/04 01:20:36;;;;;;;12.35;4.85;;;;;;;;;;5074101;28;20024;-77
2022/04/04 01:23:02;;;;;;;10.02;4.72;;;;;;;;;;5074188;28;20116;-77
2022/04/04 01:25:29;;;;;;;11.70;4.85;;;;;;;;;;5073712;28;20359;-77
2022/04/04 01:27:56;;;;;;;14.70;5.25;;;;;;;;;;5074118;28;20025;-77
2022/04/04 01:30:22;;;;;;;10.55;6.10;;;;;;;;;;5055953;28;20429;-77
2022/04/04 01:32:49;;;;;;;9.30;5.45;;;;;;;;;;5074082;28;20037;-77
2022/04/04 01:35:18;;;;;;;10.05;4.97;;;;;;;;;;5074044;28;20027;-77
2022/04/04 01:37:45;;;;;;;7.47;4.43;;;;;;;;;;5073923;28;20032;-77
2022/04/04 01:40:11;;;;;;;8.25;5.30;;;;;;;;;;5073816;28;20066;-77
2022/04/04 01:42:37;;;;;;;10.30;5.50;;;;;;;;;;5055596;28;20029;-77
2022/04/04 01:45:04;;;;;;;11.05;5.50;;;;;;;;;;5053795;28;20021;-77
2022/04/04 01:47:30;;;;;;;11.93;5.53;;;;;;;;;;5035768;28;20120;-77
2022/04/04 01:49:57;;;;;;;10.02;6.10;;;;;;;;;;5053650;28;20096;-77
2022/04/04 01:52:23;;;;;;;11.32;5.82;;;;;;;;;;5053618;28;20029;-77
2022/04/04 01:54:49;;;;;;;10.65;6.07;;;;;;;;;;5053595;28;20051;-77
2022/04/04 01:57:15;;;;;;;10.88;6.68;;;;;;;;;;5053272;28;20052;-77
2022/04/04 01:59:41;;;;;;;13.07;7.10;;;;;;;;;;5053506;28;20160;-77
2022/04/04 02:02:07;;;;;;;10.43;6.35;;;;;;;;;;5053432;28;20090;-77
2022/04/04 02:04:33;;;;;;;9.43;6.40;;;;;;;;;;5053380;28;20017;-77
2022/04/04 02:06:59;;;;;;;13.30;7.05;;;;;;;;;;5053275;28;20025;-77
2022/04/04 02:09:26;;;;;;;10.98;6.80;;;;;;;;;;5053371;28;20048;-77
2022/04/04 02:11:52;;;;;;;10.70;6.05;;;;;;;;;;5053099;28;20529;-77
2022/04/04 02:14:18;;;;;;;9.65;6.15;;;;;;;;;;5066121;28;20030;-76
2022/04/04 02:16:45;;;;;;;11.02;6.75;;;;;;;;;;5073237;28;20112;-77
2022/04/04 02:19:11;;;;;;;11.80;6.03;;;;;;;;;;5072980;28;20208;-77
2022/04/04 02:21:37;;;;;;;13.35;6.18;;;;;;;;;;5073049;28;20037;-77
2022/04/04 02:24:04;;;;;;;8.95;6.15;;;;;;;;;;5073144;28;20028;-77
2022/04/04 02:26:30;;;;;;;12.63;5.90;;;;;;;;;;5072895;28;20037;-77
2022/04/04 02:28:56;;;;;;;11.73;6.22;;;;;;;;;;5072924;28;20041;-77
2022/04/04 02:31:22;;;;;;;8.85;5.05;;;;;;;;;;5072818;28;20025;-77
2022/04/04 02:33:48;;;;;;;11.43;6.32;;;;;;;;;;5072881;28;20074;-77
2022/04/04 02:36:14;;;;;;;8.52;5.72;;;;;;;;;;5072308;28;20040;-77
2022/04/04 02:38:40;;;;;;;10.27;6.20;;;;;;;;;;5072423;28;20025;-77
2022/04/04 02:41:07;;;;;;;9.70;5.93;;;;;;;;;;5066922;28;20077;-77
2022/04/04 02:43:33;;;;;;;12.48;6.20;;;;;;;;;;5052705;28;20029;-77
2022/04/04 02:46:00;;;;;;;12.82;6.38;;;;;;;;;;5052546;28;20024;-77
2022/04/04 02:48:26;;;;;;;13.68;6.68;;;;;;;;;;5052686;28;20059;-77
2022/04/04 02:50:52;;;;;;;11.95;6.07;;;;;;;;;;5052495;28;20075;-77
2022/04/04 02:53:19;;;;;;;9.80;5.80;;;;;;;;;;5052578;28;20024;-77
2022/04/04 02:58:29;;;;;;;12.30;5.43;;;;;;;;;;5052360;28;20048;-76
2022/04/04 03:00:56;;;;;;;10.70;5.80;;;;;;;;;;5052415;28;20436;-77
2022/04/04 03:03:23;;;;;;;10.65;5.95;;;;;;;;;;5052328;28;20387;-77
2022/04/04 03:05:49;;;;;;;9.88;5.57;;;;;;;;;;5052244;28;20036;-77
2022/04/04 03:08:15;;;;;;;7.65;5.10;;;;;;;;;;5052264;28;20071;-77
2022/04/04 03:10:41;;;;;;;8.02;5.50;;;;;;;;;;5052135;28;20099;-77
2022/04/04 03:13:07;;;;;;;8.65;5.05;;;;;;;;;;5055414;28;20025;-76
2022/04/04 03:15:34;;;;;;;7.97;5.65;;;;;;;;;;5071972;28;20031;-77
2022/04/04 03:18:00;;;;;;;7.68;4.57;;;;;;;;;;5072123;28;20107;-76
2022/04/04 03:20:26;;;;;;;12.80;5.95;;;;;;;;;;5071945;28;20072;-77
2022/04/04 03:22:54;;;;;;;7.93;5.20;;;;;;;;;;5071891;28;20032;-77
2022/04/04 03:25:20;;;;;;;10.45;4.75;;;;;;;;;;5071904;28;20417;-77
2022/04/04 03:27:47;;;;;;;12.25;5.00;;;;;;;;;;5071839;28;20021;-77
2022/04/04 03:30:15;;;;;;;10.45;5.50;;;;;;;;;;5053799;28;20391;-77
2022/04/04 03:32:41;;;;;;;8.88;5.10;;;;;;;;;;5071959;28;20490;-77
2022/04/04 03:35:07;;;;;;;8.77;5.18;;;;;;;;;;5071871;28;20037;-77
2022/04/04 03:37:35;;;;;;;8.55;4.72;;;;;;;;;;5071787;28;20165;-77
2022/04/04 03:40:02;;;;;;;8.13;4.53;;;;;;;;;;5071795;28;20025;-77
2022/04/04 03:42:28;;;;;;;7.05;4.35;;;;;;;;;;5054831;28;20025;-77
2022/04/04 03:44:54;;;;;;;7.38;4.25;;;;;;;;;;5051692;28;20460;-76
2022/04/04 03:47:21;;;;;;;9.75;4.35;;;;;;;;;;5033720;28;20052;-77
2022/04/04 03:49:47;;;;;;;11.10;4.93;;;;;;;;;;5033576;28;20021;-77
2022/04/04 03:52:14;;;;;;;10.35;4.07;;;;;;;;;;5051584;28;20021;-77
2022/04/04 03:54:41;;;;;;;7.57;4.22;;;;;;;;;;5051518;28;20025;-77
2022/04/04 03:57:07;;;;;;;10.75;4.22;;;;;;;;;;5051896;28;20119;-76
2022/04/04 03:59:33;;;;;;;7.82;4.45;;;;;;;;;;5052100;28;20025;-77
2022/04/04 04:01:59;;;;;;;8.93;4.57;;;;;;;;;;5051744;28;20467;-77
2022/04/04 04:04:25;;;;;;;10.20;4.72;;;;;;;;;;5052097;28;20043;-77
2022/04/04 04:06:52;;;;;;;8.80;4.35;;;;;;;;;;5051713;28;20028;-77
2022/04/04 04:09:18;;;;;;;9.60;5.05;;;;;;;;;;5051597;28;20486;-76
2022/04/04 04:11:44;;;;;;;13.13;4.75;;;;;;;;;;5051394;28;20021;-76
2022/04/04 04:14:11;;;;;;;11.52;4.05;;;;;;;;;;5063248;28;20521;-76
2022/04/04 04:16:37;;;;;;;9.20;5.28;;;;;;;;;;5071568;28;20023;-76
2022/04/04 04:19:03;;;;;;;12.43;5.70;;;;;;;;;;5071381;28;20388;-77
2022/04/04 04:21:29;;;;;;;9.95;5.07;;;;;;;;;;5071494;28;20103;-75
2022/04/04 04:23:55;;;;;;;9.27;4.97;;;;;;;;;;5071450;28;20033;-76
2022/04/04 04:26:21;;;;;;;11.43;4.95;;;;;;;;;;5071149;28;20086;-76
2022/04/04 04:28:48;;;;;;;12.60;5.15;;;;;;;;;;5071439;28;20024;-76
2022/04/04 04:31:16;;;;;;;10.77;5.85;;;;;;;;;;5071272;28;20032;-76
2022/04/04 04:33:42;;;;;;;7.85;4.53;;;;;;;;;;5071362;28;20070;-76
2022/04/04 04:36:09;;;;;;;13.23;6.00;;;;;;;;;;5071180;28;20043;-76
2022/04/04 04:38:35;;;;;;;8.93;5.60;;;;;;;;;;5071348;28;20463;-76
2022/04/04 04:41:01;;;;;;;12.95;5.72;;;;;;;;;;5071008;28;20048;-77
2022/04/04 04:43:28;;;;;;;12.82;5.93;;;;;;;;;;5071179;28;20107;-76
2022/04/04 04:45:54;;;;;;;12.00;5.40;;;;;;;;;;5071109;28;20050;-77
2022/04/04 04:48:20;;;;;;;10.55;5.60;;;;;;;;;;5071134;28;20035;-76
2022/04/04 04:50:47;;;;;;;14.30;6.32;;;;;;;;;;5052973;28;20391;-76
2022/04/04 04:53:13;;;;;;;10.32;5.85;;;;;;;;;;5071155;28;20364;-76
2022/04/04 04:55:40;;;;;;;10.10;5.72;;;;;;;;;;5070930;28;20089;-77
2022/04/04 04:58:06;;;;;;;9.30;5.90;;;;;;;;;;5070955;28;20040;-76
2022/04/04 05:00:32;;;;;;;15.32;6.35;;;;;;;;;;5072423;28;20033;-77
2022/04/04 05:05:43;;;;;;;13.30;6.20;;;;;;;;;;5074430;28;20055;-76
2022/04/04 05:08:09;;;;;;;11.50;6.18;;;;;;;;;;5074558;28;20042;-76
2022/04/04 05:10:35;;;;;;;9.75;5.55;;;;;;;;;;5074402;28;20021;-76
2022/04/04 05:13:01;;;;;;;11.25;5.60;;;;;;;;;;5074311;28;20094;-77
2022/04/04 05:15:27;;;;;;;14.02;6.03;;;;;;;;;;5074284;28;20525;-76
2022/04/04 05:17:53;;;;;;;10.25;6.05;;;;;;;;;;5074364;28;20031;-76
2022/04/04 05:20:20;;;;;;;10.32;6.28;;;;;;;;;;5074172;28;20029;-77
2022/04/04 05:22:46;;;;;;;9.88;5.47;;;;;;;;;;5055940;28;20406;-76
2022/04/04 05:25:12;;;;;;;11.80;6.03;;;;;;;;;;5073960;28;20099;-76
2022/04/04 05:27:39;;;;;;;9.68;5.75;;;;;;;;;;5074066;28;20039;-76
2022/04/04 05:30:05;;;;;;;12.68;6.15;;;;;;;;;;5073946;28;20383;-76
2022/04/04 05:32:31;;;;;;;7.28;4.75;;;;;;;;;;5074052;28;20028;-76
2022/04/04 05:34:57;;;;;;;14.38;5.88;;;;;;;;;;5073907;28;20059;-76
2022/04/04 05:37:24;;;;;;;14.40;5.45;;;;;;;;;;5073957;28;20020;-77
2022/04/04 05:39:51;;;;;;;11.63;5.82;;;;;;;;;;5055789;28;20104;-77
2022/04/04 05:42:17;;;;;;;11.20;5.22;;;;;;;;;;5073626;28;20352;-76
2022/04/04 05:44:43;;;;;;;10.02;5.78;;;;;;;;;;5073836;28;20020;-76
2022/04/04 05:47:13;;;;;;;13.88;4.95;;;;;;;;;;5073868;28;20055;-76
2022/04/04 05:49:40;;;;;;;10.93;6.00;;;;;;;;;;5073714;28;20081;-77
2022/04/04 05:52:06;;;;;;;12.35;5.90;;;;;;;;;;5073674;28;20029;-76
2022/04/04 05:54:32;;;;;;;12.40;5.57;;;;;;;;;;5073688;28;20024;-76
2022/04/04 05:56:59;;;;;;;9.45;5.72;;;;;;;;;;5073260;28;20041;-77
2022/04/04 05:59:25;;;;;;;12.10;5.80;;;;;;;;;;5073531;28;20048;-77
2022/04/04 06:01:51;;;;;;;9.15;5.03;;;;;;;;;;5073542;28;20039;-75
2022/04/04 06:04:17;;;;;;;9.77;5.65;;;;;;;;;;5055223;28;20036;-75
2022/04/04 06:06:43;;;;;;;11.90;5.60;;;;;;;;;;5073394;28;20027;-76
2022/04/04 06:09:09;;;;;;;9.70;6.18;;;;;;;;;;5073345;28;20355;-76
2022/04/04 06:11:35;;;;;;;12.93;6.00;;;;;;;;;;5072107;28;20013;-76
2022/04/04 06:14:01;;;;;;;9.85;5.70;;;;;;;;;;5073040;28;20048;-77
2022/04/04 06:16:28;;;;;;;10.93;6.13;;;;;;;;;;5073242;28;20044;-77
2022/04/04 06:18:54;;;;;;;13.20;6.15;;;;;;;;;;5073143;28;20024;-77
2022/04/04 06:21:20;;;;;;;10.73;6.40;;;5.50;99.90;;;;;;5072975;28;20032;-75
2022/04/04 06:23:46;;;;;;;15.65;6.32;;;5.50;99.90;;;;;;5073110;28;20070;-77
2022/04/04 06:26:12;;;;;;;9.55;4.80;;;5.60;99.90;;;;;;5072722;28;20066;-76
2022/04/04 06:28:38;;;;;;;10.82;5.68;;;5.60;99.90;;;;;;5072946;28;20392;-77
2022/04/04 06:31:04;;;;;;;12.38;6.25;;;;;;;;;;5072764;28;20020;-76
2022/04/04 06:33:30;;;;;;;20.35;5.90;;;;;;;;;;5072830;28;20025;-77
2022/04/04 06:35:56;;;;;;;17.20;5.63;;;;;;;;;;5072614;28;20131;-77
2022/04/04 06:38:22;;;;;;;11.23;4.80;;;;;;;;;;5072738;28;20028;-77
2022/04/04 06:40:49;;;;;;;12.50;5.65;;;;;;;;;;5069450;28;20024;-76
2022/04/04 06:43:17;;;;;;;10.13;5.53;;;;;;;;;;5052537;28;20034;-75
2022/04/04 06:45:43;;;;;;;7.95;5.45;;;6.00;99.90;;;;;;5052626;28;20032;-76
2022/04/04 06:48:09;;;;;;;8.65;3.70;;;;;;;;;;5052720;28;20379;-77
2022/04/04 06:50:35;;;;;;;10.63;5.18;;;;;;;;;;5052432;28;20040;-74
2022/04/04 06:53:02;;;;;;;10.45;5.30;;;;;;;;;;5052501;28;20157;-74
2022/04/04 06:55:28;;;;;;;8.82;4.28;;;;;;;;;;5052371;28;20048;-74
2022/04/04 06:57:55;;;;;;;9.63;5.07;;;;;;;;;;5052119;28;20041;-74
2022/04/04 07:00:22;;;;;;;8.93;5.60;;;;;;;;;;5052326;28;20071;-74
2022/04/04 07:02:48;;;;;;;10.40;5.60;;;;;;;;;;5052243;28;20037;-74
2022/04/04 07:05:15;;;;;;;12.32;5.65;;;;;;;;;;5052226;28;20028;-74
2022/04/04 07:07:41;;;;;;;10.43;4.75;;;;;;;;;;5052060;28;20021;-74
2022/04/04 07:10:08;;;;;;;8.73;5.13;;;;;;;;;;5052182;28;20132;-74
2022/04/04 07:12:39;;;;;;;8.57;4.78;;;;;;;;;;5051959;28;20099;-74
2022/04/04 07:15:05;;;;;;;11.65;6.35;;;;;;;;;;5071425;28;20024;-74
2022/04/04 07:17:33;;;;;;;12.52;6.00;;;;;;;;;;5054014;28;20036;-74
2022/04/04 07:19:59;;;;;;;10.15;5.47;;;;;;;;;;5050452;28;20025;-74
2022/04/04 07:22:25;;;;;;;12.98;6.13;;;;;;;;;;5051718;28;20051;-74
2022/04/04 07:24:51;;;;;;;14.65;5.97;;;;;;;;;;5052025;28;20028;-74
2022/04/04 07:27:17;;;;;;;11.50;5.97;;;;;;;;;;5051762;28;20223;-74
2022/04/04 07:29:43;;;;;;;11.60;6.20;;;;;;;;;;5052200;28;20466;-74
2022/04/04 07:32:09;;;;;;;10.23;6.05;;;;;;;;;;5071918;28;20020;-74
2022/04/04 07:34:36;;;;;;;9.77;5.72;;;;;;;;;;5071846;28;20070;-74
2022/04/04 07:37:02;;;;;;;9.60;5.85;;;;;;;;;;5071661;28;20036;-74
2022/04/04 07:39:28;;;;;;;11.35;5.50;;;;;;;;;;5071642;28;20103;-74
2022/04/04 07:41:55;;;;;;;16.25;6.22;;;;;;;;;;5059334;28;20076;-74
2022/04/04 07:44:21;;;;;;;12.57;5.80;;;;;;;;;;5051633;28;20382;-74
2022/04/04 07:46:47;;;;;;;12.38;6.65;;;;;;;;;;5051661;28;20029;-74
2022/04/04 07:49:13;;;;;;;11.35;6.38;;;;;;;;;;5051539;28;20029;-74
2022/04/04 07:51:39;;;;;;;7.72;4.55;;;;;;;;;;5051534;28;20052;-74
2022/04/04 07:54:05;;;;;;;7.63;3.90;;;;;;;;;;5051509;28;20029;-74
2022/04/04 07:56:31;;;;;;;11.73;5.75;;;;;;;;;;5051437;28;20129;-74
2022/04/04 07:58:57;;;;;;;13.15;5.55;;;;;;;;;;5051389;28;20128;-75
2022/04/04 08:01:23;;;;;;;11.38;6.28;;;;;;;;;;5051534;28;20021;-75
2022/04/04 08:03:49;;;;;;;10.52;5.90;;;;;;;;;;5051397;28;20025;-74
2022/04/04 08:06:15;;;;;;;8.68;5.63;;;;;;;;;;5051302;28;20364;-74
2022/04/04 08:08:41;;;;;;;14.38;5.47;;;;;;;;;;5051359;28;20029;-74
2022/04/04 08:11:09;;;;;;;10.43;5.22;;;;;;;;;;5051247;28;20028;-74
2022/04/04 08:13:35;;;;;;;10.07;5.72;;;;;;;;;;5058402;28;20090;-74
2022/04/04 08:16:01;;;;;;;14.45;5.85;;;;;;;;;;5071382;28;20024;-74
2022/04/04 08:18:27;;;;;;;10.25;4.80;;;;;;;;;;5071439;28;20074;-74
2022/04/04 08:20:55;;;;;;;12.05;6.30;;;;;;;;;;5071137;28;20024;-73
2022/04/04 08:23:21;;;;;;;9.52;5.38;;;;;;;;;;5071308;28;20036;-74
2022/04/04 08:25:47;;;;;;;10.40;5.85;;;;;;;;;;5071119;28;20016;-74
2022/04/04 08:28:13;;;;;;;10.30;5.80;;;;;;;;;;5071201;28;20439;-74
2022/04/04 08:30:39;;;;;;;12.10;5.57;;;;;;;;;;5071151;28;20012;-74
2022/04/04 08:33:05;;;;;;;20.17;6.85;;;;;;;;;;5071262;28;20028;-74
2022/04/04 08:35:31;;;;;;;10.82;5.50;;;;;;;;;;5072689;28;20028;-74
2022/04/04 08:37:57;;;;;;;10.80;5.32;;;;;;;;;;5074964;28;20048;-74
2022/04/04 08:40:23;;;;;;;10.75;6.20;;;;;;;;;;5074893;28;20092;-77
2022/04/04 08:42:49;;;;;;;12.73;6.00;;;;;;;;;;5074535;28;20025;-74
2022/04/04 08:45:16;;;;;;;13.43;6.40;;;;;;;;;;5074853;28;20130;-74
2022/04/04 08:47:42;;;;;;;12.40;6.32;;;;;;;;;;5074899;28;20025;-74
2022/04/04 08:50:10;;;;;;;14.02;7.18;;;;;;;;;;5074884;28;20020;-74
2022/04/04 08:52:36;;;;;;;12.82;7.30;;;;;;;;;;5074734;28;20029;-74
2022/04/04 08:55:03;;;;;;;12.75;6.30;;;;;;;;;;5074889;28;20109;-74
2022/04/04 08:57:29;;;;;;;13.30;6.72;;;;;;;;;;5074533;28;20147;-74
2022/04/04 08:59:55;;;;;;;13.77;6.93;;;;;;;;;;5056655;28;20036;-74
2022/04/04 09:02:21;;;;;;;13.70;7.13;;;;;;;;;;5074488;28;20028;-74
2022/04/04 09:04:51;;;;;;;17.08;9.20;;;;;;;;;;5074569;28;20029;-74
2022/04/04 09:07:18;;;;;;;16.70;9.85;;;;;;;;;;5074414;28;20366;-74
2022/04/04 09:09:44;;;;;;;15.70;8.10;;;;;;;;;;5056376;28;20028;-74
2022/04/04 09:12:11;;;;;;;16.90;7.72;;;;;;;;;;5056307;28;20127;-74
2022/04/04 09:14:57;;;;;;;11.00;7.28;;;;;;;;;;5074247;28;20073;-74
2022/04/04 09:17:32;;;;;;;11.93;6.28;;;;;;;;;;5074158;28;20021;-74
2022/04/04 09:19:58;;;;;;;12.25;7.57;;;;;;;;;;5074334;28;20017;-75
2022/04/04 09:22:25;;;;;;;9.43;5.53;;;;;;;;;;5074299;28;20054;-74
2022/04/04 09:24:51;;;;;;;12.55;7.68;;;;;;;;;;5074083;28;20027;-74
2022/04/04 09:27:22;;;;;;;15.93;9.55;;;;;;;;;;5074059;28;20028;-75
2022/04/04 09:29:49;;;;;;;13.48;8.80;;;;;;;;;;5074137;28;20052;-75
2022/04/04 09:32:15;;;;;;;11.38;8.60;;;;;;;;;;5074104;28;20497;-75
2022/04/04 09:34:56;;;;;;;14.43;9.05;;;;;;;;;;5073987;28;20028;-74
2022/04/04 09:37:23;;;;;;;16.73;10.48;;;;;;;;;;5073759;28;20373;-75
2022/04/04 09:39:50;;;;;;;16.52;9.80;;;;;;;;;;5073804;28;20530;-75
2022/04/04 09:42:17;;;;;;;16.40;10.48;;;;;;;;;;5055324;28;20043;-75
2022/04/04 09:44:56;;;;;;;14.00;8.15;;;;;;;;;;5073890;28;20024;-75
2022/04/04 09:47:23;;;;;;;12.48;7.72;;;;;;;;;;5073587;28;20086;-75
2022/04/04 09:49:49;;;;;;;10.27;7.30;;;;;;;;;;5073766;28;20100;-79
2022/04/04 09:52:15;;;;;;;12.60;5.60;;;;;;;;;;5073603;28;20056;-75
2022/04/04 09:54:44;;;;;;;12.27;7.50;;;;;;;;;;5073684;28;20095;-75
2022/04/04 09:57:15;;;;;;;10.55;7.15;;;;;;;;;;5073294;28;20048;-79
2022/04/04 09:59:41;;;;;;;11.73;7.30;;;;;;;;;;5073639;28;20020;-75
2022/04/04 10:02:08;;;;;;;16.98;8.90;;;;;;;;;;5073533;28;20032;-75
2022/04/04 10:04:34;;;;;;;11.95;5.68;;;;;;;;;;5073511;28;20029;-74
2022/04/04 10:07:04;;;;;;;13.93;7.85;;;;;;;;;;5073353;28;20027;-74
2022/04/04 10:09:32;;;;;;;15.48;8.60;;;;;;;;;;5073277;28;20466;-75
2022/04/04 10:11:58;;;;;;;14.57;9.32;;;;;;;;;;5073229;28;20021;-74
2022/04/04 10:14:25;;;;;;;15.73;10.35;;;;;;;;;;5059316;28;20017;-75
2022/04/04 10:16:53;;;;;;;8.95;5.65;;;;;;;;;;5053277;28;20690;-76
2022/04/04 10:19:19;;;;;;;13.80;9.00;;;;;;;;;;5057888;28;20095;-75
2022/04/04 10:21:46;;;;;;;15.18;8.60;;;;;;;;;;5073183;28;20028;-75
2022/04/04 10:24:13;;;;;;;13.93;7.80;;;;;;;;;;5073034;28;20378;-75
2022/04/04 10:26:39;;;;;;;10.07;6.80;;;;;;;;;;5072955;28;20029;-75
2022/04/04 10:29:14;;;;;;;12.88;7.95;;;;;;;;;;5072838;28;20020;-75
2022/04/04 10:31:46;;;;;;;13.35;8.15;;;;;;;;;;5072714;28;20019;-75
2022/04/04 10:34:13;;;;;;;10.52;6.20;;;;;;;;;;5072926;28;20123;-75
2022/04/04 10:36:53;;;;;;;14.45;8.80;;;;;;;;;;5072567;28;20543;-75
2022/04/04 10:39:31;;;;;;;10.30;6.93;;;;;;;;;;5072443;28;20033;-75
2022/04/04 10:41:57;;;;;;;9.10;7.15;;;6.30;99.90;;;;;;5060005;28;20043;-75
2022/04/04 10:44:46;;;;;;;11.27;7.20;;;6.30;99.90;;;;;;5052739;28;20039;-76
2022/04/04 10:47:23;;;;;;;11.30;8.23;;;6.30;99.90;;;;;;5052670;28;20473;-77
2022/04/04 10:49:49;;;;;;;17.38;8.48;;;6.30;99.90;;;;;;5052676;28;20047;-76
2022/04/04 10:52:19;;;;;;;13.05;7.25;;;6.30;99.90;;;;;;5034365;28;20029;-76
2022/04/04 10:54:46;;;;;;;13.27;7.88;;;6.40;99.90;;;;;;5052349;28;20100;-76
2022/04/04 10:57:18;;;;;;;10.60;6.32;;;6.20;99.90;;;;;;5033980;28;20033;-76
2022/04/04 10:59:48;;;;;;;;;;;6.40;99.90;;;;;;5052497;28;20039;-75
2022/04/04 11:02:18;;;;;;;12.15;7.00;;;6.30;99.90;;;;;;5052358;28;19908;-76
2022/04/04 11:07:38;;;;;;;9.50;6.55;;;6.30;99.90;;;;;;5052296;28;20103;-75
2022/04/04 11:10:06;;;;;;;11.65;7.13;;;;;;;;;;5052245;28;20017;-75
2022/04/04 11:13:05;;;;;;;13.38;7.18;;;6.40;99.90;;;;;;5052169;28;20490;-75
2022/04/04 11:15:49;;;;;;;17.35;10.00;;;6.40;99.90;;;;;;5052114;28;20025;-76
2022/04/04 11:18:15;;;;;;;12.15;6.30;;;;;;;;;;5052184;28;20390;-75
2022/04/04 11:20:48;;;;;;;17.35;8.90;;;;;;;;;;5067898;28;20370;-75
2022/04/04 11:23:14;;;;;;;15.27;9.07;;;6.40;99.90;;;;;;5072072;28;20370;-76
2022/04/04 11:25:52;;;;;;;14.55;9.15;;;6.50;99.90;;;;;;5071860;28;20370;-76
2022/04/04 11:28:30;;;;;;;14.55;8.68;;;6.40;99.90;;;;;;5071984;28;20052;-75
2022/04/04 11:31:03;;;;;;;10.45;6.30;;;;;;;;;;5071609;28;20510;-75
2022/04/04 11:33:31;;;;;;;16.60;8.43;;;;;;;;;;5071981;28;20115;-76
2022/04/04 11:35:58;;;;;;;12.65;7.90;;;6.50;99.90;;;;;;5071671;28;20428;-76
2022/04/04 11:38:24;;;;;;;12.93;7.03;;;;;;;;;;5071843;28;20094;-75
2022/04/04 11:40:55;;;;;;;12.95;7.80;;;;;;;;;;5071451;28;20082;-76
2022/04/04 11:43:26;;;;;;;15.23;9.23;;;6.50;99.90;;;;;;5071427;28;20032;-76
2022/04/04 11:45:55;;;;;;;15.95;8.27;;;6.60;99.90;;;;;;5071762;28;20404;-76
2022/04/04 11:48:26;;;;;;;11.30;7.85;;;;;;;;;;5071682;28;20363;-76
2022/04/04 11:50:56;;;;;;;10.93;7.05;;;;;;;;;;5072026;28;20025;-75
2022/04/04 11:53:25;;;;;;;11.43;7.97;;;6.60;99.90;;;;;;5072211;28;20050;-75
2022/04/04 11:55:52;;;;;;;12.23;8.07;;;6.70;99.90;;;;;;5071702;28;20024;-75
2022/04/04 11:58:20;;;;;;;13.80;7.72;;;6.80;99.90;;;;;;5071673;28;20044;-76
2022/04/04 12:00:56;;;;;;;8.90;5.95;;;6.70;99.90;;;;;;5071689;28;20056;-75
2022/04/04 12:03:23;;;;;;;8.35;5.57;;;6.70;99.90;;;;;;5071600;28;20483;-75
2022/04/04 12:05:50;;;;;;;8.38;4.88;;;;;;;;;;5053270;28;20056;-74
2022/04/04 12:08:18;;;;;;;10.73;7.07;;;6.80;99.90;;;;;;5071438;28;20031;-76
2022/04/04 12:10:47;;;;;;;10.85;6.65;;;6.80;99.90;;;;;;5075046;28;20086;-75
2022/04/04 12:13:21;;;;;;;7.45;5.28;;;6.80;99.90;;;;;;5075142;28;20013;-76
2022/04/04 12:15:48;;;;;;;10.50;6.50;;;6.80;99.90;;;;;;5075559;28;20100;-76
2022/04/04 12:18:26;;;;;;;10.32;6.00;;;6.90;99.90;;;;;;5075379;28;20074;-75
2022/04/04 12:20:53;;;;;;;8.95;5.20;;;;;;;;;;5075016;28;20032;-76
2022/04/04 12:26:07;;;;;;;11.73;6.50;;;7.10;99.90;;;;;;5075056;28;20540;-77
2022/04/04 12:28:36;;;;;;;12.10;7.07;;;7.00;99.90;;;;;;5075188;28;20397;-76
2022/04/04 12:31:17;;;;;;;9.38;5.63;;;7.10;99.90;;;;;;5074981;28;20028;-76
2022/04/04 12:33:43;;;;;;;8.55;6.20;;;7.10;99.90;;;;;;5075066;28;20025;-77
2022/04/04 12:36:09;;;;;;;7.45;5.15;;;7.20;99.90;;;;;;5074876;28;20336;-77
2022/04/04 12:38:38;;;;;;;6.90;5.00;;;7.10;99.90;;;;;;5074954;28;20024;-76
2022/04/04 12:41:08;;;;;;;9.40;6.47;;;7.20;99.90;;;;;;5069574;28;20151;-76
2022/04/04 12:43:34;;;;;;;10.95;5.45;;;;;;;;;;5054877;28;20029;-76
2022/04/04 12:46:00;;;;;;;10.00;6.60;;;;;;;;;;5054468;28;20048;-76
2022/04/04 12:48:33;;;;;;;7.95;5.47;;;;;;;;;;5054603;28;20066;-76
2022/04/04 12:50:59;;;;;;;9.57;6.30;;;;;;;;;;5054733;28;20033;-77
2022/04/04 12:53:26;;;;;;;7.72;5.88;;;;;;;;;;5054214;28;20029;-77
2022/04/04 12:56:06;;;;;;;8.60;5.43;;;;;;;;;;5054515;28;20090;-77
2022/04/04 12:58:33;;;;;;;12.52;6.05;;;;;;;;;;5054506;28;20139;-77
2022/04/04 13:01:09;;;;;;;9.40;6.38;;;;;;;;;;5054333;28;20033;-76
2022/04/04 13:03:35;;;;;;;7.47;4.97;;;;;;;;;;5054617;28;20037;-76
2022/04/04 13:06:01;;;;;;;8.18;5.50;;;;;;;;;;5054232;28;20431;-77
2022/04/04 13:08:30;;;;;;;7.82;4.72;;;;;;;;;;5054283;28;20104;-76
2022/04/04 13:11:03;;;;;;;6.38;4.45;;;;;;;;;;5053961;28;20032;-76
2022/04/04 13:13:29;;;;;;;7.28;4.82;;;;;;;;;;5060478;28;20032;-76
2022/04/04 13:15:55;;;;;;;6.70;5.53;;;;;;;;;;5074131;28;20024;-77
2022/04/04 13:18:21;;;;;;;6.85;5.07;;;;;;;;;;5074052;28;20432;-76
2022/04/04 13:20:48;;;;;;;10.48;6.15;;;;;;;;;;5051944;28;20083;-77
2022/04/04 13:23:14;;;;;;;8.70;5.43;;;;;;;;;;5054147;28;20037;-77
2022/04/04 13:25:40;;;;;;;8.68;5.75;;;;;;;;;;5053788;28;20033;-78
2022/04/04 13:28:11;;;;;;;8.60;5.45;;;;;;;;;;5052788;28;20475;-77
2022/04/04 13:30:38;;;;;;;8.52;5.95;;;;;;;;;;5055880;28;20024;-77
2022/04/04 13:33:04;;;;;;;6.60;5.22;;;;;;;;;;5073937;28;20032;-76
2022/04/04 13:35:30;;;;;;;5.63;4.32;;;;;;;;;;5055707;28;20390;-75
2022/04/04 13:37:57;;;;;;;5.20;4.32;;;;;;;;;;5073820;28;20025;-77
2022/04/04 13:40:23;;;;;;;6.13;4.53;;;;;;;;;;5073645;28;20064;-77
2022/04/04 13:42:49;;;;;;;8.38;4.80;;;;;;;;;;5073430;28;20033;-76
2022/04/04 13:45:15;;;;;;;5.80;4.30;;;;;;;;;;5073837;28;20078;-76
2022/04/04 13:47:41;;;;;;;6.63;3.97;;;;;;;;;;5073792;28;20025;-77
2022/04/04 13:50:08;;;;;;;5.78;4.32;;;;;;;;;;5073864;28;20028;-76
2022/04/04 13:52:34;;;;;;;6.18;4.38;;;;;;;;;;5073714;28;20082;-77
2022/04/04 13:55:01;;;;;;;5.68;4.35;;;;;;;;;;5073515;28;20081;-77
2022/04/04 13:57:27;;;;;;;7.18;4.38;;;;;;;;;;5073469;28;20075;-77
2022/04/04 13:59:53;;;;;;;4.05;3.47;;;;;;;;;;5073436;28;20020;-75
2022/04/04 14:02:20;;;;;;;5.05;3.30;;;;;;;;;;5073543;28;20509;-77
2022/04/04 14:04:46;;;;;;;6.18;4.05;;;;;;;;;;5073457;28;20418;-77
2022/04/04 14:07:12;;;;;;;6.30;4.18;;;;;;;;;;5073279;28;20471;-77
2022/04/04 14:09:38;;;;;;;4.35;3.72;;;;;;;;;;5073403;28;20031;-77
2022/04/04 14:12:04;;;;;;;4.95;3.85;;;;;;;;;;5073470;28;20059;-77
2022/04/04 14:14:31;;;;;;;4.80;3.78;;;;;;;;;;5073190;28;20478;-77
2022/04/04 14:16:58;;;;;;;3.92;3.20;;;;;;;;;;5073336;28;20107;-77
2022/04/04 14:19:24;;;;;;;4.22;3.80;;;;;;;;;;5051937;28;20021;-77
2022/04/04 14:21:50;;;;;;;6.30;4.32;;;;;;;;;;5053177;28;20024;-78
2022/04/04 14:24:17;;;;;;;4.13;3.42;;;;;;;;;;5053454;28;20427;-77
2022/04/04 14:26:44;;;;;;;3.80;2.88;;;;;;;;;;5053166;28;20071;-77
2022/04/04 14:29:10;;;;;;;3.47;2.85;;;;;;;;;;5053203;28;20029;-77
2022/04/04 14:31:36;;;;;;;4.40;3.13;;;;;;;;;;5068767;28;20103;-77